createdAt,value
2023-04-20T05:01:14.311Z,23.11
2023-04-20T05:02:14.405Z,23.31
2023-04-20T05:03:14.512Z,23.37
2023-04-20T05:04:14.534Z,23.40
2023-04-20T05:05:14.460Z,23.42
2023-04-20T05:06:14.454Z,23.44
2023-04-20T05:07:14.526Z,23.45
2023-04-20T05:08:14.553Z,23.46
2023-04-20T05:09:14.623Z,23.47
2023-04-20T05:10:15.206Z,23.48
2023-04-20T05:11:14.588Z,23.48
2023-04-20T05:12:14.585Z,23.48
2023-04-20T05:13:14.600Z,23.49
2023-04-20T05:14:14.648Z,23.49
2023-04-20T05:15:14.708Z,23.49
2023-04-20T05:16:14.804Z,23.49
2023-04-20T05:17:14.838Z,23.50
2023-04-20T05:18:14.851Z,23.50
2023-04-20T05:19:14.955Z,23.50
2023-04-20T05:20:14.980Z,23.51
2023-04-20T05:21:15.064Z,23.50
2023-04-20T05:22:15.090Z,23.50
2023-04-20T05:23:15.150Z,23.50
2023-04-20T05:24:15.171Z,23.50
2023-04-20T05:25:15.247Z,23.50
2023-04-20T05:26:15.266Z,23.51
2023-04-20T05:27:15.346Z,23.52
2023-04-20T05:28:15.447Z,23.52
2023-04-20T05:29:15.528Z,23.53
2023-04-20T05:30:21.559Z,23.54
2023-04-20T05:31:16.564Z,23.54
2023-04-20T05:32:15.476Z,23.54
2023-04-20T05:33:15.573Z,23.55
2023-04-20T05:34:15.469Z,23.54
2023-04-20T05:35:15.442Z,23.53
2023-04-20T05:36:15.459Z,23.53
2023-04-20T05:37:15.409Z,23.52
2023-04-20T05:38:15.448Z,23.52
2023-04-20T05:39:15.630Z,23.50
2023-04-20T05:40:15.449Z,23.49
2023-04-20T05:41:15.504Z,23.49
2023-04-20T05:42:15.516Z,23.48
2023-04-20T05:43:15.584Z,23.49
2023-04-20T05:44:15.601Z,23.48
2023-04-20T05:45:15.665Z,23.48
2023-04-20T05:46:15.735Z,23.48
2023-04-20T05:47:15.719Z,23.47
2023-04-20T05:48:15.772Z,23.46
2023-04-20T05:49:15.972Z,23.48
2023-04-20T05:50:15.804Z,23.49
2023-04-20T05:51:15.872Z,23.51
2023-04-20T05:52:15.893Z,23.51
2023-04-20T05:53:16.044Z,23.51
2023-04-20T05:54:15.960Z,23.52
2023-04-20T05:55:18.399Z,23.53
2023-04-20T05:56:15.994Z,23.50
2023-04-20T05:57:15.998Z,23.52
2023-04-20T05:58:15.956Z,23.53
2023-04-20T05:59:16.252Z,23.53
2023-04-20T06:00:15.971Z,23.56
2023-04-20T06:01:15.941Z,23.57
2023-04-20T06:02:16.013Z,23.58
2023-04-20T06:03:16.167Z,23.60
2023-04-20T06:04:16.292Z,23.63
2023-04-20T06:05:15.970Z,23.68
2023-04-20T06:06:16.806Z,23.70
2023-04-20T06:07:15.924Z,23.69
2023-04-20T06:08:15.899Z,23.64
2023-04-20T06:09:16.027Z,23.56
2023-04-20T06:10:15.887Z,23.53
2023-04-20T06:11:15.870Z,23.48
2023-04-20T06:12:15.885Z,23.30
2023-04-20T06:13:15.864Z,23.19
2023-04-20T06:14:15.830Z,23.10
2023-04-20T06:15:15.835Z,23.07
2023-04-20T06:16:15.857Z,23.05
2023-04-20T06:17:16.746Z,23.08
2023-04-20T06:18:15.809Z,23.09
2023-04-20T06:19:16.082Z,23.10
2023-04-20T06:20:15.821Z,23.12
2023-04-20T06:21:15.792Z,23.11
2023-04-20T06:22:15.809Z,23.11
2023-04-20T06:23:15.767Z,23.09
2023-04-20T06:24:15.758Z,22.95
2023-04-20T06:25:15.992Z,22.89
2023-04-20T06:26:15.787Z,22.85
2023-04-20T06:27:15.802Z,22.86
2023-04-20T06:28:15.758Z,22.88
2023-04-20T06:29:15.992Z,22.94
2023-04-20T06:30:15.738Z,22.98
2023-04-20T06:31:15.781Z,23.02
2023-04-20T06:32:15.708Z,23.07
2023-04-20T06:33:15.703Z,23.10
2023-04-20T06:34:15.690Z,23.15
2023-04-20T06:35:15.690Z,23.20
2023-04-20T06:36:15.686Z,23.24
2023-04-20T06:37:15.837Z,23.27
2023-04-20T06:38:15.690Z,23.31
2023-04-20T06:39:16.022Z,23.35
2023-04-20T06:40:16.354Z,23.38
2023-04-20T06:41:15.668Z,23.41
2023-04-20T06:42:15.613Z,23.44
2023-04-20T06:43:15.667Z,23.46
2023-04-20T06:44:15.620Z,23.48
2023-04-20T06:45:15.649Z,23.51
2023-04-20T06:46:15.642Z,23.54
2023-04-20T06:47:15.706Z,23.57
2023-04-20T06:48:30.793Z,23.59
2023-04-20T06:49:16.823Z,23.60
2023-04-20T06:50:15.602Z,23.61
2023-04-20T06:51:15.597Z,23.64
2023-04-20T06:52:15.624Z,23.66
2023-04-20T06:53:15.562Z,23.69
2023-04-20T06:54:15.563Z,23.70
2023-04-20T06:55:15.570Z,23.72
2023-04-20T06:56:15.556Z,23.74
2023-04-20T06:57:15.516Z,23.78
2023-04-20T06:58:15.519Z,23.74
2023-04-20T06:59:15.727Z,23.73
2023-04-20T07:00:15.641Z,23.72
2023-04-20T07:01:15.675Z,23.71
2023-04-20T07:02:15.844Z,23.70
2023-04-20T07:03:15.961Z,23.69
2023-04-20T07:04:15.958Z,23.69
2023-04-20T07:05:15.953Z,23.70
2023-04-20T07:06:16.763Z,23.72
2023-04-20T07:07:17.771Z,23.71
2023-04-20T07:08:16.302Z,23.69
2023-04-20T07:09:16.271Z,23.70
2023-04-20T07:10:16.297Z,23.70
2023-04-20T07:11:16.288Z,23.70
2023-04-20T07:12:16.344Z,23.73
2023-04-20T07:13:16.386Z,23.71
2023-04-20T07:14:16.423Z,23.71
2023-04-20T07:15:16.472Z,23.71
2023-04-20T07:16:16.642Z,23.71
2023-04-20T07:17:16.622Z,23.74
2023-04-20T07:18:16.666Z,23.78
2023-04-20T07:19:16.810Z,23.80
2023-04-20T07:20:16.782Z,23.82
2023-04-20T07:21:16.808Z,23.83
2023-04-20T07:22:16.807Z,23.86
2023-04-20T07:23:16.878Z,23.87
2023-04-20T07:24:16.883Z,23.90
2023-04-20T07:25:16.922Z,23.91
2023-04-20T07:26:16.978Z,23.92
2023-04-20T07:27:16.959Z,23.94
2023-04-20T07:28:16.965Z,23.96
2023-04-20T07:29:17.265Z,23.97
2023-04-20T07:30:17.029Z,23.99
2023-04-20T07:31:17.093Z,24.01
2023-04-20T07:32:17.170Z,24.02
2023-04-20T07:33:17.081Z,24.04
2023-04-20T07:34:17.269Z,24.06
2023-04-20T07:35:17.080Z,24.08
2023-04-20T07:36:17.110Z,24.09
2023-04-20T07:37:17.088Z,24.10
2023-04-20T07:38:17.115Z,24.11
2023-04-20T07:39:17.382Z,24.13
2023-04-20T07:40:17.081Z,24.14
2023-04-20T07:41:17.211Z,24.15
2023-04-20T07:42:17.103Z,24.16
2023-04-20T07:43:17.055Z,24.17
2023-04-20T07:44:17.068Z,24.19
2023-04-20T07:45:17.061Z,24.21
2023-04-20T07:46:17.235Z,24.21
2023-04-20T07:47:17.107Z,24.23
2023-04-20T07:48:17.104Z,24.25
2023-04-20T07:49:17.401Z,24.28
2023-04-20T07:50:17.156Z,24.29
2023-04-20T07:51:17.187Z,24.30
2023-04-20T07:52:17.617Z,24.32
2023-04-20T07:53:17.256Z,24.32
2023-04-20T07:54:17.318Z,24.33
2023-04-20T07:55:17.337Z,24.34
2023-04-20T07:56:17.353Z,24.36
2023-04-20T07:57:17.402Z,24.37
2023-04-20T07:58:17.430Z,24.38
2023-04-20T07:59:17.577Z,24.37
2023-04-20T08:00:17.505Z,24.36
2023-04-20T08:01:17.532Z,24.36
2023-04-20T08:02:17.676Z,24.35
2023-04-20T08:03:17.773Z,24.35
2023-04-20T08:04:17.887Z,24.35
2023-04-20T08:05:17.869Z,24.34
2023-04-20T08:06:17.809Z,24.34
2023-04-20T08:07:17.990Z,24.34
2023-04-20T08:08:17.950Z,24.31
2023-04-20T08:09:18.097Z,24.33
2023-04-20T08:10:17.999Z,24.34
2023-04-20T08:11:18.096Z,24.36
2023-04-20T08:12:18.130Z,24.35
2023-04-20T08:13:18.226Z,24.33
2023-04-20T08:14:18.394Z,24.29
2023-04-20T08:15:18.208Z,24.26
2023-04-20T08:16:18.312Z,24.23
2023-04-20T08:17:18.212Z,24.22
2023-04-20T08:18:19.523Z,24.16
2023-04-20T08:19:18.374Z,24.14
2023-04-20T08:20:18.205Z,24.12
2023-04-20T08:21:18.233Z,24.10
2023-04-20T08:22:18.213Z,24.10
2023-04-20T08:23:18.240Z,24.09
2023-04-20T08:24:18.484Z,24.07
2023-04-20T08:25:18.194Z,24.07
2023-04-20T08:26:18.147Z,24.06
2023-04-20T08:27:18.197Z,24.04
2023-04-20T08:28:32.460Z,24.05
2023-04-20T08:29:19.365Z,24.03
2023-04-20T08:30:18.134Z,24.02
2023-04-20T08:31:18.179Z,24.03
2023-04-20T08:32:18.167Z,24.05
2023-04-20T08:33:18.138Z,24.06
2023-04-20T08:34:18.106Z,24.08
2023-04-20T08:35:18.133Z,24.09
2023-04-20T08:36:18.119Z,24.08
2023-04-20T08:37:18.128Z,24.09
2023-04-20T08:38:20.820Z,24.09
2023-04-20T08:39:19.062Z,24.10
2023-04-20T08:40:18.062Z,24.10
2023-04-20T08:41:18.074Z,24.11
2023-04-20T08:42:18.049Z,24.10
2023-04-20T08:43:18.068Z,24.11
2023-04-20T08:44:18.303Z,24.11
2023-04-20T08:45:18.051Z,24.10
2023-04-20T08:46:18.024Z,24.12
2023-04-20T08:47:18.069Z,24.13
2023-04-20T08:48:18.029Z,24.14
2023-04-20T08:49:18.011Z,24.15
2023-04-20T08:50:17.995Z,24.16
2023-04-20T08:51:17.991Z,24.16
2023-04-20T08:52:17.971Z,24.16
2023-04-20T08:53:17.980Z,24.14
2023-04-20T08:54:18.320Z,24.15
2023-04-20T08:55:17.953Z,24.18
2023-04-20T08:56:17.963Z,24.21
2023-04-20T08:57:17.939Z,24.25
2023-04-20T08:58:17.961Z,24.29
2023-04-20T08:59:17.957Z,24.33
2023-04-20T09:00:17.907Z,24.37
2023-04-20T09:01:22.656Z,24.39
2023-04-20T09:02:19.016Z,24.42
2023-04-20T09:03:18.228Z,24.45
2023-04-20T09:04:18.681Z,24.49
2023-04-20T09:05:17.950Z,24.51
2023-04-20T09:06:17.876Z,24.54
2023-04-20T09:07:17.888Z,24.57
2023-04-20T09:08:17.901Z,24.59
2023-04-20T09:09:17.862Z,24.62
2023-04-20T09:10:17.893Z,24.63
2023-04-20T09:11:17.851Z,24.65
2023-04-20T09:12:17.845Z,24.67
2023-04-20T09:13:17.902Z,24.67
2023-04-20T09:14:18.505Z,24.70
2023-04-20T09:15:17.995Z,24.72
2023-04-20T09:16:18.026Z,24.75
2023-04-20T09:17:18.340Z,24.76
2023-04-20T09:18:18.067Z,24.79
2023-04-20T09:19:18.105Z,24.81
2023-04-20T09:20:18.116Z,24.82
2023-04-20T09:21:18.120Z,24.83
2023-04-20T09:22:18.192Z,24.85
2023-04-20T09:23:18.163Z,24.86
2023-04-20T09:24:18.280Z,24.88
2023-04-20T09:25:18.200Z,24.90
2023-04-20T09:26:18.189Z,24.91
2023-04-20T09:27:18.259Z,24.93
2023-04-20T09:28:18.216Z,24.94
2023-04-20T09:29:18.210Z,24.96
2023-04-20T09:30:18.223Z,24.98
2023-04-20T09:31:18.290Z,25.00
2023-04-20T09:32:18.251Z,25.02
2023-04-20T09:33:18.220Z,25.03
2023-04-20T09:34:18.408Z,25.04
2023-04-20T09:35:18.259Z,25.06
2023-04-20T09:36:18.247Z,25.06
2023-04-20T09:37:18.221Z,25.08
2023-04-20T09:38:18.262Z,25.08
2023-04-20T09:39:18.247Z,25.07
2023-04-20T09:40:18.244Z,25.06
2023-04-20T09:41:18.224Z,25.05
2023-04-20T09:42:18.263Z,25.05
2023-04-20T09:43:18.215Z,24.99
2023-04-20T09:44:18.500Z,24.76
2023-04-20T09:45:18.310Z,24.52
2023-04-20T09:46:18.391Z,24.28
2023-04-20T09:47:18.353Z,24.09
2023-04-20T09:48:18.360Z,23.92
2023-04-20T09:49:18.449Z,23.76
2023-04-20T09:50:26.719Z,23.66
2023-04-20T09:51:19.477Z,23.55
2023-04-20T09:52:18.519Z,23.43
2023-04-20T09:53:18.528Z,23.31
2023-04-20T09:54:18.579Z,23.21
2023-04-20T09:55:18.450Z,23.08
2023-04-20T09:56:18.464Z,23.00
2023-04-20T09:57:18.406Z,22.94
2023-04-20T09:58:18.403Z,22.87
2023-04-20T09:59:18.452Z,22.81
2023-04-20T10:00:18.418Z,22.73
2023-04-20T10:01:18.459Z,22.70
2023-04-20T10:02:18.485Z,22.73
2023-04-20T10:03:18.526Z,22.71
2023-04-20T10:04:18.664Z,22.67
2023-04-20T10:05:18.599Z,22.64
2023-04-20T10:06:18.450Z,22.65
2023-04-20T10:07:18.524Z,22.65
2023-04-20T10:08:18.572Z,22.65
2023-04-20T10:09:18.577Z,22.65
2023-04-20T10:10:18.651Z,22.64
2023-04-20T10:11:18.628Z,22.61
2023-04-20T10:12:18.691Z,22.60
2023-04-20T10:13:18.649Z,22.59
2023-04-20T10:14:18.895Z,22.55
2023-04-20T10:15:18.723Z,22.52
2023-04-20T10:16:18.728Z,22.48
2023-04-20T10:17:18.743Z,22.43
2023-04-20T10:18:18.799Z,22.40
2023-04-20T10:19:18.670Z,22.38
2023-04-20T10:20:18.683Z,22.35
2023-04-20T10:21:18.711Z,22.31
2023-04-20T10:22:18.694Z,22.27
2023-04-20T10:23:18.844Z,22.27
2023-04-20T10:24:20.411Z,22.25
2023-04-20T10:25:18.784Z,22.23
2023-04-20T10:26:18.828Z,22.19
2023-04-20T10:27:18.830Z,22.27
2023-04-20T10:28:18.863Z,22.36
2023-04-20T10:29:18.846Z,22.47
2023-04-20T10:30:18.890Z,22.59
2023-04-20T10:31:18.963Z,22.70
2023-04-20T10:32:18.956Z,22.81
2023-04-20T10:33:19.023Z,22.91
2023-04-20T10:34:19.110Z,23.00
2023-04-20T10:35:19.032Z,23.09
2023-04-20T10:36:19.052Z,23.17
2023-04-20T10:37:19.165Z,23.24
2023-04-20T10:38:19.074Z,23.29
2023-04-20T10:39:19.754Z,23.34
2023-04-20T10:40:19.117Z,23.40
2023-04-20T10:41:19.220Z,23.48
2023-04-20T10:42:19.249Z,23.56
2023-04-20T10:43:19.275Z,23.62
2023-04-20T10:44:19.511Z,23.70
2023-04-20T10:45:19.357Z,23.75
2023-04-20T10:46:19.462Z,23.81
2023-04-20T10:47:19.434Z,23.88
2023-04-20T10:48:19.419Z,23.94
2023-04-20T10:49:19.561Z,23.99
2023-04-20T10:50:19.433Z,24.03
2023-04-20T10:51:19.431Z,24.07
2023-04-20T10:52:19.405Z,24.12
2023-04-20T10:53:19.464Z,24.14
2023-04-20T10:54:19.497Z,24.06
2023-04-20T10:55:19.429Z,23.97
2023-04-20T10:56:19.474Z,23.76
2023-04-20T10:57:19.611Z,23.54
2023-04-20T10:58:19.558Z,23.35
2023-04-20T10:59:19.829Z,23.24
2023-04-20T11:00:19.571Z,23.17
2023-04-20T11:01:19.634Z,23.16
2023-04-20T11:02:19.785Z,23.08
2023-04-20T11:03:19.866Z,22.98
2023-04-20T11:04:19.693Z,22.92
2023-04-20T11:05:19.961Z,22.77
2023-04-20T11:06:19.761Z,22.43
2023-04-20T11:07:19.784Z,22.43
2023-04-20T11:08:19.812Z,22.55
2023-04-20T11:09:20.024Z,22.67
2023-04-20T11:10:19.870Z,22.77
2023-04-20T11:11:19.893Z,22.89
2023-04-20T11:12:19.927Z,22.98
2023-04-20T11:13:19.923Z,23.07
2023-04-20T11:14:19.956Z,23.14
2023-04-20T11:15:19.981Z,23.22
2023-04-20T11:16:20.061Z,23.28
2023-04-20T11:17:20.009Z,23.34
2023-04-20T11:18:20.012Z,23.40
2023-04-20T11:19:20.087Z,23.45
2023-04-20T11:20:20.126Z,23.50
2023-04-20T11:21:20.187Z,23.55
2023-04-20T11:22:20.241Z,23.59
2023-04-20T11:23:20.266Z,23.62
2023-04-20T11:24:20.323Z,23.67
2023-04-20T11:25:20.444Z,23.70
2023-04-20T11:26:20.391Z,23.73
2023-04-20T11:27:20.420Z,23.76
2023-04-20T11:28:20.503Z,23.80
2023-04-20T11:29:20.608Z,23.81
2023-04-20T11:30:20.483Z,23.84
2023-04-20T11:31:20.506Z,23.86
2023-04-20T11:32:20.642Z,23.88
2023-04-20T11:33:20.561Z,23.90
2023-04-20T11:34:20.516Z,23.91
2023-04-20T11:35:20.518Z,23.93
2023-04-20T11:36:20.527Z,23.94
2023-04-20T11:37:20.537Z,23.93
2023-04-20T11:38:20.548Z,23.92
2023-04-20T11:39:20.563Z,23.85
2023-04-20T11:40:20.666Z,23.61
2023-04-20T11:41:20.724Z,23.33
2023-04-20T11:42:20.650Z,23.02
2023-04-20T11:43:20.698Z,22.72
2023-04-20T11:44:20.705Z,22.48
2023-04-20T11:45:20.733Z,22.29
2023-04-20T11:46:20.857Z,22.19
2023-04-20T11:47:20.833Z,22.05
2023-04-20T11:48:20.806Z,21.94
2023-04-20T11:49:20.873Z,21.77
2023-04-20T11:50:20.934Z,21.71
2023-04-20T11:51:20.910Z,21.62
2023-04-20T11:52:20.909Z,21.54
2023-04-20T11:53:20.960Z,21.43
2023-04-20T11:54:20.940Z,21.32
2023-04-20T11:55:20.972Z,21.25
2023-04-20T11:56:20.997Z,21.19
2023-04-20T11:57:21.084Z,21.13
2023-04-20T11:58:21.138Z,21.07
2023-04-20T11:59:21.650Z,20.98
2023-04-20T12:00:21.266Z,20.98
2023-04-20T12:01:21.347Z,21.00
